sensor_id;sensor_type;location;lat;lon;timestamp;P1;durP1;ratioP1;P2;durP2;ratioP2
36923;SDS011;22841;50.252;18.688;2022-11-13T00:02:23;134.15;;;37.72;;
36923;SDS011;22841;50.252;18.688;2022-11-13T00:04:49;153.73;;;39.40;;
36923;SDS011;22841;50.252;18.688;2022-11-13T00:07:16;123.10;;;42.03;;
36923;SDS011;22841;50.252;18.688;2022-11-13T00:09:42;134.85;;;40.88;;
36923;SDS011;22841;50.252;18.688;2022-11-13T00:12:08;126.10;;;40.53;;
36923;SDS011;22841;50.252;18.688;2022-11-13T00:14:41;111.88;;;38.25;;
36923;SDS011;22841;50.252;18.688;2022-11-13T00:17:08;149.32;;;41.67;;
36923;SDS011;22841;50.252;18.688;2022-11-13T00:19:34;121.03;;;43.38;;
36923;SDS011;22841;50.252;18.688;2022-11-13T00:22:00;189.32;;;41.75;;
36923;SDS011;22841;50.252;18.688;2022-11-13T00:24:26;143.43;;;45.78;;
36923;SDS011;22841;50.252;18.688;2022-11-13T00:26:52;116.63;;;42.90;;
36923;SDS011;22841;50.252;18.688;2022-11-13T00:29:19;150.20;;;45.28;;
36923;SDS011;22841;50.252;18.688;2022-11-13T00:31:45;159.68;;;45.22;;
36923;SDS011;22841;50.252;18.688;2022-11-13T00:34:11;149.85;;;46.90;;
36923;SDS011;22841;50.252;18.688;2022-11-13T00:36:37;164.00;;;43.90;;
36923;SDS011;22841;50.252;18.688;2022-11-13T00:39:03;145.70;;;45.17;;
36923;SDS011;22841;50.252;18.688;2022-11-13T00:41:29;155.00;;;44.75;;
36923;SDS011;22841;50.252;18.688;2022-11-13T00:43:55;121.93;;;44.45;;
36923;SDS011;22841;50.252;18.688;2022-11-13T00:46:21;166.85;;;43.47;;
36923;SDS011;22841;50.252;18.688;2022-11-13T00:55:32;159.73;;;43.67;;
36923;SDS011;22841;50.252;18.688;2022-11-13T01:30:24;149.48;;;45.03;;
36923;SDS011;22841;50.252;18.688;2022-11-13T01:32:50;125.10;;;43.30;;
36923;SDS011;22841;50.252;18.688;2022-11-13T01:35:16;121.95;;;41.50;;
36923;SDS011;22841;50.252;18.688;2022-11-13T01:37:47;149.98;;;43.30;;
36923;SDS011;22841;50.252;18.688;2022-11-13T01:40:13;121.18;;;40.58;;
36923;SDS011;22841;50.252;18.688;2022-11-13T01:42:39;140.40;;;42.53;;
36923;SDS011;22841;50.252;18.688;2022-11-13T01:48:09;145.48;;;42.58;;
36923;SDS011;22841;50.252;18.688;2022-11-13T01:50:36;109.80;;;41.05;;
36923;SDS011;22841;50.252;18.688;2022-11-13T01:53:03;114.45;;;39.47;;
36923;SDS011;22841;50.252;18.688;2022-11-13T01:55:30;121.25;;;42.15;;
36923;SDS011;22841;50.252;18.688;2022-11-13T01:57:56;112.25;;;38.90;;
36923;SDS011;22841;50.252;18.688;2022-11-13T02:00:23;101.32;;;38.38;;
36923;SDS011;22841;50.252;18.688;2022-11-13T02:02:49;197.95;;;40.10;;
36923;SDS011;22841;50.252;18.688;2022-11-13T02:05:15;146.50;;;38.85;;
36923;SDS011;22841;50.252;18.688;2022-11-13T02:07:42;113.55;;;36.90;;
36923;SDS011;22841;50.252;18.688;2022-11-13T02:10:09;102.65;;;35.83;;
36923;SDS011;22841;50.252;18.688;2022-11-13T02:12:37;130.30;;;36.35;;
36923;SDS011;22841;50.252;18.688;2022-11-13T02:15:09;124.70;;;35.92;;
36923;SDS011;22841;50.252;18.688;2022-11-13T02:20:05;127.13;;;35.75;;
36923;SDS011;22841;50.252;18.688;2022-11-13T02:22:37;117.45;;;36.22;;
36923;SDS011;22841;50.252;18.688;2022-11-13T02:25:19;128.25;;;40.15;;
36923;SDS011;22841;50.252;18.688;2022-11-13T02:27:47;155.85;;;38.60;;
36923;SDS011;22841;50.252;18.688;2022-11-13T02:30:18;110.22;;;35.70;;
36923;SDS011;22841;50.252;18.688;2022-11-13T02:32:47;107.88;;;37.30;;
36923;SDS011;22841;50.252;18.688;2022-11-13T02:35:23;106.00;;;39.17;;
36923;SDS011;22841;50.252;18.688;2022-11-13T02:38:01;112.43;;;33.70;;
36923;SDS011;22841;50.252;18.688;2022-11-13T02:40:30;158.15;;;36.88;;
36923;SDS011;22841;50.252;18.688;2022-11-13T02:42:58;119.70;;;36.15;;
36923;SDS011;22841;50.252;18.688;2022-11-13T02:45:24;112.65;;;34.67;;
36923;SDS011;22841;50.252;18.688;2022-11-13T02:47:51;90.88;;;33.75;;
36923;SDS011;22841;50.252;18.688;2022-11-13T02:50:18;110.55;;;33.15;;
36923;SDS011;22841;50.252;18.688;2022-11-13T02:52:44;182.50;;;37.20;;
36923;SDS011;22841;50.252;18.688;2022-11-13T02:55:10;142.40;;;35.83;;
36923;SDS011;22841;50.252;18.688;2022-11-13T02:57:36;111.82;;;36.08;;
36923;SDS011;22841;50.252;18.688;2022-11-13T03:00:03;100.75;;;34.53;;
36923;SDS011;22841;50.252;18.688;2022-11-13T03:02:30;133.88;;;37.20;;
36923;SDS011;22841;50.252;18.688;2022-11-13T03:04:56;98.70;;;35.08;;
36923;SDS011;22841;50.252;18.688;2022-11-13T03:07:22;96.50;;;33.65;;
36923;SDS011;22841;50.252;18.688;2022-11-13T03:09:48;157.05;;;39.67;;
36923;SDS011;22841;50.252;18.688;2022-11-13T03:12:14;137.52;;;35.60;;
36923;SDS011;22841;50.252;18.688;2022-11-13T03:14:41;151.77;;;39.15;;
36923;SDS011;22841;50.252;18.688;2022-11-13T03:17:07;111.10;;;35.30;;
36923;SDS011;22841;50.252;18.688;2022-11-13T03:19:33;155.55;;;35.15;;
36923;SDS011;22841;50.252;18.688;2022-11-13T03:21:59;175.50;;;39.15;;
36923;SDS011;22841;50.252;18.688;2022-11-13T03:24:25;103.05;;;37.42;;
36923;SDS011;22841;50.252;18.688;2022-11-13T03:26:51;125.22;;;38.20;;
36923;SDS011;22841;50.252;18.688;2022-11-13T03:29:17;115.18;;;36.80;;
36923;SDS011;22841;50.252;18.688;2022-11-13T03:31:43;122.18;;;37.55;;
36923;SDS011;22841;50.252;18.688;2022-11-13T03:34:09;115.95;;;35.28;;
36923;SDS011;22841;50.252;18.688;2022-11-13T03:36:35;103.30;;;36.83;;
36923;SDS011;22841;50.252;18.688;2022-11-13T03:39:02;83.95;;;34.92;;
36923;SDS011;22841;50.252;18.688;2022-11-13T03:41:28;82.57;;;35.47;;
36923;SDS011;22841;50.252;18.688;2022-11-13T03:43:54;85.50;;;36.35;;
36923;SDS011;22841;50.252;18.688;2022-11-13T03:46:20;80.22;;;35.40;;
36923;SDS011;22841;50.252;18.688;2022-11-13T03:48:46;86.47;;;36.75;;
36923;SDS011;22841;50.252;18.688;2022-11-13T03:51:12;82.60;;;35.83;;
36923;SDS011;22841;50.252;18.688;2022-11-13T03:53:39;81.78;;;37.28;;
36923;SDS011;22841;50.252;18.688;2022-11-13T03:56:05;88.20;;;37.20;;
36923;SDS011;22841;50.252;18.688;2022-11-13T03:58:31;95.28;;;39.38;;
36923;SDS011;22841;50.252;18.688;2022-11-13T04:00:57;95.95;;;40.85;;
36923;SDS011;22841;50.252;18.688;2022-11-13T04:03:23;85.85;;;40.38;;
36923;SDS011;22841;50.252;18.688;2022-11-13T04:05:50;79.40;;;36.45;;
36923;SDS011;22841;50.252;18.688;2022-11-13T04:08:17;86.63;;;37.47;;
36923;SDS011;22841;50.252;18.688;2022-11-13T04:10:43;94.47;;;39.15;;
36923;SDS011;22841;50.252;18.688;2022-11-13T04:13:10;90.20;;;37.05;;
36923;SDS011;22841;50.252;18.688;2022-11-13T04:15:36;102.85;;;41.13;;
36923;SDS011;22841;50.252;18.688;2022-11-13T04:18:03;96.22;;;39.80;;
36923;SDS011;22841;50.252;18.688;2022-11-13T04:20:29;98.57;;;41.42;;
36923;SDS011;22841;50.252;18.688;2022-11-13T04:22:55;97.35;;;39.80;;
36923;SDS011;22841;50.252;18.688;2022-11-13T04:25:23;92.30;;;40.42;;
36923;SDS011;22841;50.252;18.688;2022-11-13T04:27:49;88.57;;;39.72;;
36923;SDS011;22841;50.252;18.688;2022-11-13T04:30:16;97.13;;;41.22;;
36923;SDS011;22841;50.252;18.688;2022-11-13T04:32:43;87.00;;;37.15;;
36923;SDS011;22841;50.252;18.688;2022-11-13T04:35:09;91.22;;;38.88;;
36923;SDS011;22841;50.252;18.688;2022-11-13T04:37:36;97.10;;;40.03;;
36923;SDS011;22841;50.252;18.688;2022-11-13T04:40:03;93.68;;;39.33;;
36923;SDS011;22841;50.252;18.688;2022-11-13T04:42:29;98.53;;;39.22;;
36923;SDS011;22841;50.252;18.688;2022-11-13T04:45:17;94.45;;;36.90;;
36923;SDS011;22841;50.252;18.688;2022-11-13T04:47:45;99.50;;;38.60;;
36923;SDS011;22841;50.252;18.688;2022-11-13T04:50:12;94.93;;;38.08;;
36923;SDS011;22841;50.252;18.688;2022-11-13T04:52:39;96.63;;;37.30;;
36923;SDS011;22841;50.252;18.688;2022-11-13T04:55:06;87.80;;;37.72;;
36923;SDS011;22841;50.252;18.688;2022-11-13T04:57:33;94.15;;;39.88;;
36923;SDS011;22841;50.252;18.688;2022-11-13T04:59:59;98.25;;;39.85;;
36923;SDS011;22841;50.252;18.688;2022-11-13T05:02:25;109.13;;;43.03;;
36923;SDS011;22841;50.252;18.688;2022-11-13T05:04:52;105.20;;;41.00;;
36923;SDS011;22841;50.252;18.688;2022-11-13T05:07:18;115.90;;;44.75;;
36923;SDS011;22841;50.252;18.688;2022-11-13T05:09:44;119.00;;;44.13;;
36923;SDS011;22841;50.252;18.688;2022-11-13T05:12:10;112.50;;;44.42;;
36923;SDS011;22841;50.252;18.688;2022-11-13T05:14:37;122.55;;;44.88;;
36923;SDS011;22841;50.252;18.688;2022-11-13T05:17:04;108.00;;;42.10;;
36923;SDS011;22841;50.252;18.688;2022-11-13T05:19:44;107.90;;;41.33;;
36923;SDS011;22841;50.252;18.688;2022-11-13T05:22:10;117.22;;;43.05;;
36923;SDS011;22841;50.252;18.688;2022-11-13T05:24:36;116.20;;;42.00;;
36923;SDS011;22841;50.252;18.688;2022-11-13T05:27:03;118.13;;;42.65;;
36923;SDS011;22841;50.252;18.688;2022-11-13T05:29:29;117.25;;;41.15;;
36923;SDS011;22841;50.252;18.688;2022-11-13T05:31:55;119.93;;;42.45;;
36923;SDS011;22841;50.252;18.688;2022-11-13T05:34:22;107.57;;;41.83;;
36923;SDS011;22841;50.252;18.688;2022-11-13T05:36:48;111.72;;;42.10;;
36923;SDS011;22841;50.252;18.688;2022-11-13T05:39:14;110.22;;;39.13;;
36923;SDS011;22841;50.252;18.688;2022-11-13T05:41:40;106.13;;;41.03;;
36923;SDS011;22841;50.252;18.688;2022-11-13T05:44:07;109.20;;;41.83;;
36923;SDS011;22841;50.252;18.688;2022-11-13T05:46:33;102.55;;;41.63;;
36923;SDS011;22841;50.252;18.688;2022-11-13T05:49:00;104.38;;;42.30;;
36923;SDS011;22841;50.252;18.688;2022-11-13T05:51:28;99.53;;;40.08;;
36923;SDS011;22841;50.252;18.688;2022-11-13T05:53:56;107.57;;;39.72;;
36923;SDS011;22841;50.252;18.688;2022-11-13T05:56:30;112.80;;;40.42;;
36923;SDS011;22841;50.252;18.688;2022-11-13T05:58:59;123.13;;;43.30;;
36923;SDS011;22841;50.252;18.688;2022-11-13T06:01:30;130.30;;;42.80;;
36923;SDS011;22841;50.252;18.688;2022-11-13T06:04:01;115.75;;;40.83;;
36923;SDS011;22841;50.252;18.688;2022-11-13T06:06:29;129.77;;;44.13;;
36923;SDS011;22841;50.252;18.688;2022-11-13T06:08:56;129.80;;;43.28;;
36923;SDS011;22841;50.252;18.688;2022-11-13T06:11:24;124.55;;;43.60;;
36923;SDS011;22841;50.252;18.688;2022-11-13T06:13:52;149.20;;;47.42;;
36923;SDS011;22841;50.252;18.688;2022-11-13T06:16:20;132.52;;;44.55;;
36923;SDS011;22841;50.252;18.688;2022-11-13T06:18:55;137.43;;;46.17;;
36923;SDS011;22841;50.252;18.688;2022-11-13T06:21:24;158.85;;;45.75;;
36923;SDS011;22841;50.252;18.688;2022-11-13T06:23:52;144.13;;;46.28;;
36923;SDS011;22841;50.252;18.688;2022-11-13T06:26:21;145.75;;;45.47;;
36923;SDS011;22841;50.252;18.688;2022-11-13T06:28:52;150.93;;;44.78;;
36923;SDS011;22841;50.252;18.688;2022-11-13T06:31:19;132.73;;;43.00;;
36923;SDS011;22841;50.252;18.688;2022-11-13T06:33:48;146.13;;;42.30;;
36923;SDS011;22841;50.252;18.688;2022-11-13T06:36:25;117.10;;;35.53;;
36923;SDS011;22841;50.252;18.688;2022-11-13T06:38:53;98.55;;;32.33;;
36923;SDS011;22841;50.252;18.688;2022-11-13T06:41:20;103.13;;;31.65;;
36923;SDS011;22841;50.252;18.688;2022-11-13T06:43:48;100.78;;;31.90;;
36923;SDS011;22841;50.252;18.688;2022-11-13T06:46:16;99.65;;;31.65;;
36923;SDS011;22841;50.252;18.688;2022-11-13T06:48:46;112.28;;;35.38;;
36923;SDS011;22841;50.252;18.688;2022-11-13T06:51:14;96.00;;;32.45;;
36923;SDS011;22841;50.252;18.688;2022-11-13T06:53:51;108.50;;;34.72;;
36923;SDS011;22841;50.252;18.688;2022-11-13T06:56:17;104.45;;;35.25;;
36923;SDS011;22841;50.252;18.688;2022-11-13T06:58:44;108.90;;;35.38;;
36923;SDS011;22841;50.252;18.688;2022-11-13T07:01:15;100.10;;;34.47;;
36923;SDS011;22841;50.252;18.688;2022-11-13T07:03:43;95.55;;;32.90;;
36923;SDS011;22841;50.252;18.688;2022-11-13T07:06:10;102.28;;;32.65;;
36923;SDS011;22841;50.252;18.688;2022-11-13T07:08:41;101.10;;;33.30;;
36923;SDS011;22841;50.252;18.688;2022-11-13T07:11:08;89.32;;;33.40;;
36923;SDS011;22841;50.252;18.688;2022-11-13T07:13:37;114.78;;;33.28;;
36923;SDS011;22841;50.252;18.688;2022-11-13T07:16:04;105.47;;;37.45;;
36923;SDS011;22841;50.252;18.688;2022-11-13T07:18:32;105.28;;;35.03;;
36923;SDS011;22841;50.252;18.688;2022-11-13T07:21:02;89.90;;;33.13;;
36923;SDS011;22841;50.252;18.688;2022-11-13T07:23:31;106.80;;;37.40;;
36923;SDS011;22841;50.252;18.688;2022-11-13T07:25:59;107.25;;;35.25;;
36923;SDS011;22841;50.252;18.688;2022-11-13T07:28:25;107.60;;;35.65;;
36923;SDS011;22841;50.252;18.688;2022-11-13T07:30:51;113.82;;;39.38;;
36923;SDS011;22841;50.252;18.688;2022-11-13T07:33:17;119.40;;;36.88;;
36923;SDS011;22841;50.252;18.688;2022-11-13T07:35:43;99.75;;;36.95;;
36923;SDS011;22841;50.252;18.688;2022-11-13T07:38:27;100.00;;;35.83;;
36923;SDS011;22841;50.252;18.688;2022-11-13T07:40:53;110.90;;;36.42;;
36923;SDS011;22841;50.252;18.688;2022-11-13T07:43:21;112.72;;;35.58;;
36923;SDS011;22841;50.252;18.688;2022-11-13T07:45:47;98.45;;;37.53;;
36923;SDS011;22841;50.252;18.688;2022-11-13T07:48:19;102.43;;;34.23;;
36923;SDS011;22841;50.252;18.688;2022-11-13T07:50:48;110.10;;;35.88;;
36923;SDS011;22841;50.252;18.688;2022-11-13T07:53:15;108.22;;;38.83;;
36923;SDS011;22841;50.252;18.688;2022-11-13T07:55:42;105.65;;;37.65;;
36923;SDS011;22841;50.252;18.688;2022-11-13T07:58:08;108.75;;;38.58;;
36923;SDS011;22841;50.252;18.688;2022-11-13T08:00:34;106.65;;;38.28;;
36923;SDS011;22841;50.252;18.688;2022-11-13T08:03:04;100.88;;;37.95;;
36923;SDS011;22841;50.252;18.688;2022-11-13T08:05:31;104.18;;;38.03;;
36923;SDS011;22841;50.252;18.688;2022-11-13T08:07:58;112.07;;;37.42;;
36923;SDS011;22841;50.252;18.688;2022-11-13T08:10:24;117.95;;;39.05;;
36923;SDS011;22841;50.252;18.688;2022-11-13T08:12:57;95.05;;;40.30;;
36923;SDS011;22841;50.252;18.688;2022-11-13T08:15:24;118.63;;;43.30;;
36923;SDS011;22841;50.252;18.688;2022-11-13T08:17:57;117.32;;;41.03;;
36923;SDS011;22841;50.252;18.688;2022-11-13T08:20:25;128.02;;;45.63;;
36923;SDS011;22841;50.252;18.688;2022-11-13T08:22:55;122.97;;;46.13;;
36923;SDS011;22841;50.252;18.688;2022-11-13T08:25:22;114.10;;;46.15;;
36923;SDS011;22841;50.252;18.688;2022-11-13T08:27:48;94.30;;;40.05;;
36923;SDS011;22841;50.252;18.688;2022-11-13T08:30:18;101.68;;;38.28;;
36923;SDS011;22841;50.252;18.688;2022-11-13T08:32:45;113.45;;;41.03;;
36923;SDS011;22841;50.252;18.688;2022-11-13T08:35:12;93.55;;;43.08;;
36923;SDS011;22841;50.252;18.688;2022-11-13T08:37:39;102.70;;;43.47;;
36923;SDS011;22841;50.252;18.688;2022-11-13T08:40:05;97.10;;;42.65;;
36923;SDS011;22841;50.252;18.688;2022-11-13T08:42:31;97.50;;;42.20;;
36923;SDS011;22841;50.252;18.688;2022-11-13T08:44:58;102.00;;;43.05;;
36923;SDS011;22841;50.252;18.688;2022-11-13T08:47:25;109.78;;;41.47;;
36923;SDS011;22841;50.252;18.688;2022-11-13T08:49:53;92.82;;;40.60;;
36923;SDS011;22841;50.252;18.688;2022-11-13T08:52:20;93.47;;;40.40;;
36923;SDS011;22841;50.252;18.688;2022-11-13T08:54:46;86.57;;;34.95;;
36923;SDS011;22841;50.252;18.688;2022-11-13T08:57:12;80.38;;;33.80;;
36923;SDS011;22841;50.252;18.688;2022-11-13T08:59:38;83.47;;;33.72;;
36923;SDS011;22841;50.252;18.688;2022-11-13T09:02:04;86.53;;;33.85;;
36923;SDS011;22841;50.252;18.688;2022-11-13T09:04:31;75.45;;;31.75;;
36923;SDS011;22841;50.252;18.688;2022-11-13T09:06:57;75.93;;;34.67;;
36923;SDS011;22841;50.252;18.688;2022-11-13T09:09:23;73.40;;;32.35;;
36923;SDS011;22841;50.252;18.688;2022-11-13T09:11:49;72.95;;;32.97;;
36923;SDS011;22841;50.252;18.688;2022-11-13T09:14:15;79.25;;;32.95;;
36923;SDS011;22841;50.252;18.688;2022-11-13T09:16:41;93.95;;;36.33;;
36923;SDS011;22841;50.252;18.688;2022-11-13T09:19:07;88.95;;;37.17;;
36923;SDS011;22841;50.252;18.688;2022-11-13T09:21:34;85.60;;;33.92;;
36923;SDS011;22841;50.252;18.688;2022-11-13T09:24:00;85.47;;;34.97;;
36923;SDS011;22841;50.252;18.688;2022-11-13T09:26:26;83.90;;;35.63;;
36923;SDS011;22841;50.252;18.688;2022-11-13T10:24:37;85.20;;;35.78;;
36923;SDS011;22841;50.252;18.688;2022-11-13T10:27:13;86.95;;;39.10;;
36923;SDS011;22841;50.252;18.688;2022-11-13T10:32:20;85.50;;;39.95;;
36923;SDS011;22841;50.252;18.688;2022-11-13T10:34:51;86.22;;;40.60;;
36923;SDS011;22841;50.252;18.688;2022-11-13T10:40:32;82.68;;;39.53;;
36923;SDS011;22841;50.252;18.688;2022-11-13T10:43:14;87.47;;;40.10;;
36923;SDS011;22841;50.252;18.688;2022-11-13T10:45:42;78.97;;;38.10;;
36923;SDS011;22841;50.252;18.688;2022-11-13T10:48:26;88.53;;;41.08;;
36923;SDS011;22841;50.252;18.688;2022-11-13T10:51:14;77.03;;;40.47;;
36923;SDS011;22841;50.252;18.688;2022-11-13T10:53:46;75.95;;;36.60;;
36923;SDS011;22841;50.252;18.688;2022-11-13T10:56:54;80.70;;;38.50;;
36923;SDS011;22841;50.252;18.688;2022-11-13T10:59:12;73.65;;;36.22;;
36923;SDS011;22841;50.252;18.688;2022-11-13T11:01:44;75.25;;;39.22;;
36923;SDS011;22841;50.252;18.688;2022-11-13T11:04:13;79.57;;;38.55;;
36923;SDS011;22841;50.252;18.688;2022-11-13T11:06:48;77.68;;;36.03;;
36923;SDS011;22841;50.252;18.688;2022-11-13T11:09:30;68.85;;;36.63;;
36923;SDS011;22841;50.252;18.688;2022-11-13T11:22:40;71.97;;;34.70;;
36923;SDS011;22841;50.252;18.688;2022-11-13T11:25:11;85.72;;;44.10;;
36923;SDS011;22841;50.252;18.688;2022-11-13T11:30:52;81.25;;;41.47;;
36923;SDS011;22841;50.252;18.688;2022-11-13T11:33:35;76.72;;;37.30;;
36923;SDS011;22841;50.252;18.688;2022-11-13T11:36:12;68.28;;;33.45;;
36923;SDS011;22841;50.252;18.688;2022-11-13T11:38:53;67.20;;;36.22;;
36923;SDS011;22841;50.252;18.688;2022-11-13T11:41:26;73.70;;;37.85;;
36923;SDS011;22841;50.252;18.688;2022-11-13T11:44:34;59.50;;;33.75;;
36923;SDS011;22841;50.252;18.688;2022-11-13T11:46:59;65.03;;;33.42;;
36923;SDS011;22841;50.252;18.688;2022-11-13T11:49:25;62.85;;;31.77;;
36923;SDS011;22841;50.252;18.688;2022-11-13T11:54:58;69.60;;;33.47;;
36923;SDS011;22841;50.252;18.688;2022-11-13T11:57:53;66.03;;;35.63;;
36923;SDS011;22841;50.252;18.688;2022-11-13T12:00:44;67.25;;;34.63;;
36923;SDS011;22841;50.252;18.688;2022-11-13T12:03:31;65.18;;;32.83;;
36923;SDS011;22841;50.252;18.688;2022-11-13T12:06:16;67.32;;;33.63;;
36923;SDS011;22841;50.252;18.688;2022-11-13T12:09:14;66.57;;;33.15;;
36923;SDS011;22841;50.252;18.688;2022-11-13T12:11:44;67.28;;;34.78;;
36923;SDS011;22841;50.252;18.688;2022-11-13T12:26:01;68.85;;;35.10;;
36923;SDS011;22841;50.252;18.688;2022-11-13T12:28:30;69.28;;;32.35;;
36923;SDS011;22841;50.252;18.688;2022-11-13T12:33:57;68.57;;;34.10;;
36923;SDS011;22841;50.252;18.688;2022-11-13T12:37:00;60.15;;;32.22;;
36923;SDS011;22841;50.252;18.688;2022-11-13T12:39:37;64.07;;;33.03;;
36923;SDS011;22841;50.252;18.688;2022-11-13T12:44:46;61.33;;;32.22;;
36923;SDS011;22841;50.252;18.688;2022-11-13T12:47:34;72.55;;;33.75;;
36923;SDS011;22841;50.252;18.688;2022-11-13T12:50:05;70.47;;;33.65;;
36923;SDS011;22841;50.252;18.688;2022-11-13T12:53:00;58.55;;;30.98;;
36923;SDS011;22841;50.252;18.688;2022-11-13T12:55:32;59.08;;;29.90;;
36923;SDS011;22841;50.252;18.688;2022-11-13T12:58:06;61.03;;;31.77;;
36923;SDS011;22841;50.252;18.688;2022-11-13T13:03:44;65.55;;;32.55;;
36923;SDS011;22841;50.252;18.688;2022-11-13T13:06:37;59.90;;;30.20;;
36923;SDS011;22841;50.252;18.688;2022-11-13T13:09:52;62.20;;;30.63;;
36923;SDS011;22841;50.252;18.688;2022-11-13T13:12:59;58.38;;;29.75;;
36923;SDS011;22841;50.252;18.688;2022-11-13T13:15:52;56.97;;;29.48;;
36923;SDS011;22841;50.252;18.688;2022-11-13T13:26:15;100.37;;;45.20;;
36923;SDS011;22841;50.252;18.688;2022-11-13T13:28:48;95.30;;;46.00;;
36923;SDS011;22841;50.252;18.688;2022-11-13T13:34:24;100.35;;;48.85;;
36923;SDS011;22841;50.252;18.688;2022-11-13T13:42:31;109.22;;;48.15;;
36923;SDS011;22841;50.252;18.688;2022-11-13T13:50:30;111.30;;;50.03;;
36923;SDS011;22841;50.252;18.688;2022-11-13T13:52:58;112.18;;;52.42;;
36923;SDS011;22841;50.252;18.688;2022-11-13T13:55:35;116.70;;;51.25;;
36923;SDS011;22841;50.252;18.688;2022-11-13T13:58:05;108.13;;;51.10;;
36923;SDS011;22841;50.252;18.688;2022-11-13T14:00:34;124.43;;;52.95;;
36923;SDS011;22841;50.252;18.688;2022-11-13T14:03:00;112.80;;;51.20;;
36923;SDS011;22841;50.252;18.688;2022-11-13T14:05:29;124.50;;;53.25;;
36923;SDS011;22841;50.252;18.688;2022-11-13T14:07:57;120.07;;;55.45;;
36923;SDS011;22841;50.252;18.688;2022-11-13T14:10:26;117.55;;;51.80;;
36923;SDS011;22841;50.252;18.688;2022-11-13T14:12:53;121.78;;;53.38;;
36923;SDS011;22841;50.252;18.688;2022-11-13T14:18:04;115.57;;;55.22;;
36923;SDS011;22841;50.252;18.688;2022-11-13T14:23:19;119.68;;;54.53;;
36923;SDS011;22841;50.252;18.688;2022-11-13T14:25:49;126.40;;;56.80;;
36923;SDS011;22841;50.252;18.688;2022-11-13T14:28:18;135.80;;;55.80;;
36923;SDS011;22841;50.252;18.688;2022-11-13T14:31:05;139.52;;;59.00;;
36923;SDS011;22841;50.252;18.688;2022-11-13T14:33:36;136.85;;;61.65;;
36923;SDS011;22841;50.252;18.688;2022-11-13T14:36:06;135.07;;;61.22;;
36923;SDS011;22841;50.252;18.688;2022-11-13T14:38:34;144.27;;;61.30;;
36923;SDS011;22841;50.252;18.688;2022-11-13T14:41:01;142.55;;;61.53;;
36923;SDS011;22841;50.252;18.688;2022-11-13T14:43:30;140.13;;;60.30;;
36923;SDS011;22841;50.252;18.688;2022-11-13T14:46:04;150.85;;;65.57;;
36923;SDS011;22841;50.252;18.688;2022-11-13T14:48:32;142.73;;;61.28;;
36923;SDS011;22841;50.252;18.688;2022-11-13T14:51:03;135.95;;;61.97;;
36923;SDS011;22841;50.252;18.688;2022-11-13T14:53:32;148.43;;;63.70;;
36923;SDS011;22841;50.252;18.688;2022-11-13T14:55:59;154.25;;;63.83;;
36923;SDS011;22841;50.252;18.688;2022-11-13T14:58:34;160.30;;;65.72;;
36923;SDS011;22841;50.252;18.688;2022-11-13T15:01:18;152.07;;;65.00;;
36923;SDS011;22841;50.252;18.688;2022-11-13T15:03:46;167.68;;;68.93;;
36923;SDS011;22841;50.252;18.688;2022-11-13T15:06:17;156.55;;;67.28;;
36923;SDS011;22841;50.252;18.688;2022-11-13T15:08:47;158.52;;;66.50;;
36923;SDS011;22841;50.252;18.688;2022-11-13T15:11:15;155.02;;;67.53;;
36923;SDS011;22841;50.252;18.688;2022-11-13T15:13:43;157.07;;;68.07;;
36923;SDS011;22841;50.252;18.688;2022-11-13T15:16:17;157.52;;;67.80;;
36923;SDS011;22841;50.252;18.688;2022-11-13T15:18:53;159.15;;;67.90;;
36923;SDS011;22841;50.252;18.688;2022-11-13T15:21:24;160.77;;;72.57;;
36923;SDS011;22841;50.252;18.688;2022-11-13T15:23:50;166.73;;;70.25;;
36923;SDS011;22841;50.252;18.688;2022-11-13T15:26:16;162.52;;;72.70;;
36923;SDS011;22841;50.252;18.688;2022-11-13T15:28:42;170.75;;;73.47;;
36923;SDS011;22841;50.252;18.688;2022-11-13T15:31:17;185.50;;;79.53;;
36923;SDS011;22841;50.252;18.688;2022-11-13T15:34:04;220.50;;;86.03;;
36923;SDS011;22841;50.252;18.688;2022-11-13T15:36:30;232.35;;;89.88;;
36923;SDS011;22841;50.252;18.688;2022-11-13T15:38:57;262.75;;;97.78;;
36923;SDS011;22841;50.252;18.688;2022-11-13T15:41:23;251.77;;;103.32;;
36923;SDS011;22841;50.252;18.688;2022-11-13T15:43:53;248.13;;;100.28;;
36923;SDS011;22841;50.252;18.688;2022-11-13T15:46:21;205.02;;;88.07;;
36923;SDS011;22841;50.252;18.688;2022-11-13T15:48:48;190.88;;;82.38;;
36923;SDS011;22841;50.252;18.688;2022-11-13T15:51:19;197.63;;;81.10;;
36923;SDS011;22841;50.252;18.688;2022-11-13T15:53:59;213.00;;;84.20;;
36923;SDS011;22841;50.252;18.688;2022-11-13T15:56:34;202.52;;;76.75;;
36923;SDS011;22841;50.252;18.688;2022-11-13T15:59:01;206.32;;;79.68;;
36923;SDS011;22841;50.252;18.688;2022-11-13T16:01:27;230.10;;;75.72;;
36923;SDS011;22841;50.252;18.688;2022-11-13T16:03:53;210.43;;;74.45;;
36923;SDS011;22841;50.252;18.688;2022-11-13T16:06:22;212.75;;;74.75;;
36923;SDS011;22841;50.252;18.688;2022-11-13T16:08:49;209.90;;;75.90;;
36923;SDS011;22841;50.252;18.688;2022-11-13T16:11:15;234.88;;;73.63;;
36923;SDS011;22841;50.252;18.688;2022-11-13T16:13:43;234.57;;;77.53;;
36923;SDS011;22841;50.252;18.688;2022-11-13T16:16:16;224.70;;;76.10;;
36923;SDS011;22841;50.252;18.688;2022-11-13T16:18:47;211.65;;;76.07;;
36923;SDS011;22841;50.252;18.688;2022-11-13T16:21:15;220.02;;;75.13;;
36923;SDS011;22841;50.252;18.688;2022-11-13T16:23:43;215.43;;;72.43;;
36923;SDS011;22841;50.252;18.688;2022-11-13T16:26:13;239.65;;;73.13;;
36923;SDS011;22841;50.252;18.688;2022-11-13T16:28:42;182.88;;;67.90;;
36923;SDS011;22841;50.252;18.688;2022-11-13T16:31:08;200.77;;;71.78;;
36923;SDS011;22841;50.252;18.688;2022-11-13T16:33:34;194.82;;;69.25;;
36923;SDS011;22841;50.252;18.688;2022-11-13T16:36:01;186.73;;;63.28;;
36923;SDS011;22841;50.252;18.688;2022-11-13T16:38:27;223.60;;;64.75;;
36923;SDS011;22841;50.252;18.688;2022-11-13T16:40:53;253.48;;;63.80;;
36923;SDS011;22841;50.252;18.688;2022-11-13T16:43:19;202.98;;;60.17;;
36923;SDS011;22841;50.252;18.688;2022-11-13T16:45:45;271.63;;;61.85;;
36923;SDS011;22841;50.252;18.688;2022-11-13T16:48:13;310.33;;;66.97;;
36923;SDS011;22841;50.252;18.688;2022-11-13T16:50:41;226.02;;;64.68;;
36923;SDS011;22841;50.252;18.688;2022-11-13T16:53:07;252.55;;;66.53;;
36923;SDS011;22841;50.252;18.688;2022-11-13T16:55:34;182.45;;;64.90;;
36923;SDS011;22841;50.252;18.688;2022-11-13T16:58:01;230.32;;;67.43;;
36923;SDS011;22841;50.252;18.688;2022-11-13T17:00:28;236.15;;;66.32;;
36923;SDS011;22841;50.252;18.688;2022-11-13T17:02:55;205.18;;;63.38;;
36923;SDS011;22841;50.252;18.688;2022-11-13T17:05:22;239.63;;;65.43;;
36923;SDS011;22841;50.252;18.688;2022-11-13T17:07:48;182.38;;;61.08;;